Terminal Aerodrome Forecast
Issued by NWS

Home | Current Version | Previous Version | Text Only | Print | Product List | Glossary On
Versions: 1 2 3 4 5 6 7 8 9 10 11 12 13 14 15 16
744
FTUS44 KCRP 180528
TAFLRD
TAF
KLRD 180528Z 1806/1906 33011KT P6SM VCSH BKN010 OVC200
      TEMPO 1806/1809 4SM SHRA BR OVC008
     FM181600 32010KT P6SM VCSH SCT012 BKN025
     FM181900 33009KT P6SM SCT030 BKN200
     FM190100 VRB03KT P6SM BKN200=

USA.gov is the U.S. government's official web portal to all federal, state and local government web resources and services.